Terminal Aerodrome Forecast
Issued by NWS Quad Cities IA IL

Home | Current Version | Previous Version | Text Only | Print | Product List | Glossary On
Versions: 1 2 3 4 5 6 7 8 9 10 11 12 13 14 15 16 17 18 19 20 21 22 23 24 25 26 27 28 29 30
000
FTUS43 KDVN 241700 RRA
TAFMLI
TAF
KMLI 241742Z 2418/2518 27025G32KT 6SM -SHSN BR OVC015
      TEMPO 2418/2420 4SM -FZDZ
     FM242200 28018G28KT 6SM -SHSN BKN015 OVC025
     FM250300 30012KT P6SM SCT025 BKN035=

USA.gov is the U.S. government's official web portal to all federal, state and local government web resources and services.